Temp: 11.6°C   Hum: 87%
  Wind: 0.0mph   Dir: W (276°)
  Rain: 0.0mm Rate: 0.0mm/hr
  Pressure: 1027.3mb

Historic data

Bath Spa Weather Station Historical Data
Daily Summary for May 21, 2022 Units:  English    Metric   Both
Daily Weekly Monthly Yearly Custom
  High: Low: Average:
Temperature: 64.8 °F 48.9 °F 56.9 °F
Dew Point: 51.6 °F 46 °F 48.8 °F
Humidity: 91% 56.2% 76%
Wind Speed: 9.6mph 0mph 3.8mph
Wind Gust: 19mph - -
Wind- - West
Pressure: 30.21 in 30.11 in -
Precipitation: 0.00 in    
Historical Graphs
 
 
Tabular Data for May 21, 2022
Time Temperature Dew Point Pressure Wind Wind Speed Wind Gust Humidity Rainfall Rate (Hourly) solar
00:09 50.5 °F 47.1 °F 30.16 in WNW 2.2 mph 4 mph 88% 0.00 in 0 W/m2
00:14 50.5 °F 47.1 °F 30.16 in WNW 2.6 mph 4 mph 88% 0.00 in 0 W/m2
00:19 50.5 °F 47 °F 30.16 in WNW 2.9 mph 4 mph 87.8% 0.00 in 0 W/m2
00:24 50.5 °F 47 °F 30.16 in West 3.5 mph 6 mph 87.6% 0.00 in 0 W/m2
00:29 50.5 °F 46.8 °F 30.16 in West 3.6 mph 7 mph 87% 0.00 in 0 W/m2
00:34 50.6 °F 46.9 °F 30.16 in WSW 4.2 mph 7 mph 87% 0.00 in 0 W/m2
00:39 50.7 °F 46.9 °F 30.16 in West 3.2 mph 6 mph 87% 0.00 in 0 W/m2
00:44 50.8 °F 47 °F 30.16 in West 2.2 mph 5 mph 87% 0.00 in 0 W/m2
00:49 50.8 °F 47 °F 30.16 in West 1.8 mph 3 mph 87% 0.00 in 0 W/m2
00:54 50.6 °F 46.9 °F 30.16 in West 1.5 mph 3 mph 87% 0.00 in 0 W/m2
00:59 50.4 °F 46.6 °F 30.16 in West 2 mph 3 mph 87% 0.00 in 0 W/m2
01:03 50.3 °F 46.5 °F 30.16 in West 2 mph 4 mph 87% 0.00 in 0 W/m2
01:09 50.3 °F 46.5 °F 30.16 in West 2.3 mph 5 mph 87% 0.00 in 0 W/m2
01:14 50.4 °F 46.8 °F 30.16 in West 2.4 mph 4 mph 87.6% 0.00 in 0 W/m2
01:19 50.5 °F 47.1 °F 30.16 in West 2.6 mph 4 mph 88% 0.00 in 0 W/m2
01:24 50.6 °F 47.2 °F 30.16 in West 1.7 mph 3 mph 88% 0.00 in 0 W/m2
01:29 50.7 °F 47.3 °F 30.16 in WSW 2.8 mph 6 mph 88% 0.00 in 0 W/m2
01:34 50.9 °F 47.5 °F 30.16 in WSW 1.4 mph 6 mph 88% 0.00 in 0 W/m2
01:39 50.8 °F 47.4 °F 30.16 in WSW 1.4 mph 5 mph 88% 0.00 in 0 W/m2
01:44 50.7 °F 47.3 °F 30.16 in West 2.4 mph 5 mph 88% 0.00 in 0 W/m2
01:49 50.5 °F 47.1 °F 30.16 in West 2.4 mph 4 mph 88% 0.00 in 0 W/m2
01:54 50.4 °F 47 °F 30.16 in West 2 mph 4 mph 88% 0.00 in 0 W/m2
01:59 50.4 °F 46.9 °F 30.16 in West 1.8 mph 3 mph 88% 0.00 in 0 W/m2
02:04 50.4 °F 47.2 °F 30.16 in West 1.3 mph 4 mph 88.8% 0.00 in 0 W/m2
02:09 50.3 °F 47.2 °F 30.16 in West 1 mph 2 mph 89% 0.00 in 0 W/m2
02:14 50.4 °F 47.3 °F 30.16 in West 0.4 mph 2 mph 89% 0.00 in 0 W/m2
02:19 50.4 °F 47.3 °F 30.16 in West 1 mph 2 mph 89% 0.00 in 0 W/m2
02:24 50.2 °F 47.1 °F 30.16 in West 0.4 mph 3 mph 89% 0.00 in 0 W/m2
02:29 50.1 °F 47 °F 30.16 in West 1.6 mph 3 mph 89% 0.00 in 0 W/m2
02:34 50 °F 47 °F 30.16 in West 3.1 mph 5 mph 89% 0.00 in 0 W/m2
02:39 50.2 °F 47.1 °F 30.16 in WSW 2.2 mph 4 mph 89% 0.00 in 0 W/m2
02:44 50.4 °F 47.4 °F 30.16 in WSW 2 mph 8 mph 89% 0.00 in 0 W/m2
02:49 50.5 °F 47.5 °F 30.16 in WSW 0.8 mph 3 mph 89% 0.00 in 0 W/m2
02:54 50.5 °F 47.5 °F 30.16 in WSW 0.4 mph 2 mph 89% 0.00 in 0 W/m2
02:59 50.4 °F 47.4 °F 30.16 in WSW 0.2 mph 1 mph 89% 0.00 in 0 W/m2
03:04 50.4 °F 47.3 °F 30.16 in WSW 0.6 mph 3 mph 89% 0.00 in 0 W/m2
03:09 50.4 °F 47.3 °F 30.16 in West 1.3 mph 4 mph 89% 0.00 in 0 W/m2
03:14 50.4 °F 47.3 °F 30.16 in NNW 2 mph 4 mph 89% 0.00 in 0 W/m2
03:19 50.4 °F 47.3 °F 30.16 in NNW 2 mph 4 mph 89% 0.00 in 0 W/m2
03:24 50.4 °F 47.3 °F 30.16 in NW 3.3 mph 6 mph 89.2% 0.00 in 0 W/m2
03:29 50.4 °F 47.5 °F 30.16 in NW 1.9 mph 5 mph 90% 0.00 in 0 W/m2
03:34 50.4 °F 47.5 °F 30.16 in NW 1.8 mph 4 mph 90% 0.00 in 0 W/m2
03:39 50.4 °F 47.5 °F 30.16 in NW 3.7 mph 5 mph 90% 0.00 in 0 W/m2
03:44 50.4 °F 47.5 °F 30.16 in WNW 2.3 mph 5 mph 90% 0.00 in 0 W/m2
03:49 50.4 °F 47.5 °F 30.16 in WNW 1.6 mph 4 mph 90% 0.00 in 0 W/m2
03:54 50.4 °F 47.5 °F 30.16 in WNW 2.5 mph 4 mph 90% 0.00 in 0 W/m2
03:59 50.2 °F 47.3 °F 30.16 in WNW 1.6 mph 4 mph 90% 0.00 in 0 W/m2
04:04 50.1 °F 47.2 °F 30.16 in WNW 1.1 mph 3 mph 90% 0.00 in 0 W/m2
04:09 49.8 °F 46.9 °F 30.16 in WNW 1.8 mph 3 mph 90% 0.00 in 0 W/m2
04:14 49.8 °F 46.9 °F 30.16 in WNW 2.7 mph 4 mph 90% 0.00 in 0 W/m2
04:19 49.8 °F 46.9 °F 30.16 in WNW 2.5 mph 4 mph 90% 0.00 in 0 W/m2
04:24 49.6 °F 46.8 °F 30.16 in WNW 2.8 mph 4 mph 90% 0.00 in 0 W/m2
04:29 49.6 °F 46.8 °F 30.16 in WNW 2.6 mph 5 mph 90% 0.00 in 0 W/m2
04:34 49.5 °F 46.6 °F 30.16 in WNW 2.5 mph 4 mph 90% 0.00 in 0 W/m2
04:39 49.3 °F 46.4 °F 30.16 in WNW 1.7 mph 5 mph 90% 0.00 in 0 W/m2
04:44 49.3 °F 46.4 °F 30.16 in WNW 2.6 mph 4 mph 90% 0.00 in 0 W/m2
04:49 49.3 °F 46.4 °F 30.16 in WNW 2.9 mph 5 mph 90% 0.00 in 0 W/m2
04:54 49.5 °F 46.6 °F 30.16 in WNW 3.7 mph 6 mph 90% 0.00 in 0 W/m2
04:59 49.6 °F 46.8 °F 30.16 in West 3.2 mph 6 mph 90% 0.00 in 0 W/m2
05:04 49.5 °F 46.7 °F 30.16 in WNW 2.9 mph 6 mph 90% 0.00 in 0 W/m2
05:09 49.5 °F 46.6 °F 30.16 in WNW 2.5 mph 6 mph 90% 0.00 in 0 W/m2
05:14 49.4 °F 46.5 °F 30.16 in WNW 2.7 mph 4 mph 90% 0.00 in 5 W/m2
05:19 49.3 °F 46.4 °F 30.16 in WNW 2.2 mph 3 mph 90% 0.00 in 7 W/m2
05:24 49.1 °F 46.2 °F 30.16 in WNW 1.6 mph 3 mph 90% 0.00 in 12 W/m2
05:29 49 °F 46.1 °F 30.16 in WNW 2.9 mph 4 mph 90% 0.00 in 12 W/m2
05:34 48.9 °F 46 °F 30.16 in WNW 2.4 mph 5 mph 90% 0.00 in 14 W/m2
05:39 48.9 °F 46 °F 30.17 in WNW 2.1 mph 4 mph 90% 0.00 in 18 W/m2
05:44 48.9 °F 46 °F 30.17 in WNW 0.2 mph 2 mph 90% 0.00 in 21 W/m2
05:49 48.9 °F 46 °F 30.17 in Calm     90% 0.00 in 28 W/m2
05:54 48.9 °F 46 °F 30.17 in Calm     90% 0.00 in 30 W/m2
05:59 48.9 °F 46 °F 30.17 in Calm     90% 0.00 in 33 W/m2
06:04 48.9 °F 46 °F 30.17 in WNW 0.6 mph 2 mph 90% 0.00 in 39 W/m2
06:09 48.9 °F 46 °F 30.17 in WNW 0.2 mph 2 mph 90% 0.00 in 49 W/m2
06:14 48.9 °F 46 °F 30.18 in WNW 0.2 mph 2 mph 90% 0.00 in 54 W/m2
06:19 48.9 °F 46 °F 30.18 in WNW 0.5 mph 2 mph 90% 0.00 in 54 W/m2
06:24 49.2 °F 46.5 °F 30.18 in WNW 0.2 mph 2 mph 90.4% 0.00 in 54 W/m2
06:29 49.3 °F 46.8 °F 30.18 in Calm   2 mph 91% 0.00 in 49 W/m2
06:34 49.5 °F 46.9 °F 30.18 in WNW 0.2 mph 1 mph 91% 0.00 in 44 W/m2
06:39 49.5 °F 46.9 °F 30.18 in Calm   1 mph 91% 0.00 in 51 W/m2
06:44 49.6 °F 47.1 °F 30.18 in WNW 0.4 mph 2 mph 91% 0.00 in 53 W/m2
06:49 49.7 °F 47.2 °F 30.18 in WNW 1.3 mph 3 mph 91% 0.00 in 84 W/m2
06:54 49.9 °F 47.4 °F 30.19 in WNW 1.3 mph 3 mph 91% 0.00 in 90 W/m2
06:59 50.2 °F 47.7 °F 30.19 in WNW 1.6 mph 4 mph 91% 0.00 in 81 W/m2
07:04 50.3 °F 47.8 °F 30.19 in WNW 0.8 mph 2 mph 91% 0.00 in 84 W/m2
07:09 50.5 °F 47.7 °F 30.19 in WNW 2.5 mph 4 mph 90.4% 0.00 in 125 W/m2
07:14 50.5 °F 47.7 °F 30.19 in West 3.2 mph 5 mph 90% 0.00 in 144 W/m2
07:19 50.9 °F 48 °F 30.19 in West 2.9 mph 5 mph 90% 0.00 in 179 W/m2
07:24 51.1 °F 48.2 °F 30.19 in West 1.1 mph 4 mph 90% 0.00 in 134 W/m2
07:29 51.3 °F 48.4 °F 30.19 in West 1.3 mph 3 mph 90% 0.00 in 127 W/m2
07:34 51.4 °F 48.6 °F 30.19 in West 1.6 mph 4 mph 90% 0.00 in 163 W/m2
07:39 51.6 °F 48.6 °F 30.19 in West 1 mph 2 mph 89.2% 0.00 in 297 W/m2
07:44 52.1 °F 49.1 °F 30.19 in West 0.6 mph 2 mph 89% 0.00 in 311 W/m2
07:49 52.4 °F 49.4 °F 30.19 in West 0.9 mph 3 mph 89% 0.00 in 232 W/m2
07:54 52.6 °F 49.2 °F 30.19 in West 1.2 mph 3 mph 88% 0.00 in 185 W/m2
07:59 52.9 °F 49.5 °F 30.19 in West 2.5 mph 4 mph 88% 0.00 in 267 W/m2
08:04 53.3 °F 49.8 °F 30.19 in West 2.1 mph 4 mph 87.6% 0.00 in 336 W/m2
08:09 53.9 °F 50.2 °F 30.19 in West 3.7 mph 9 mph 87% 0.00 in 390 W/m2
08:14 54.1 °F 49.8 °F 30.19 in WSW 3.6 mph 9 mph 85.6% 0.00 in 290 W/m2
08:19 54.7 °F 50.2 °F 30.19 in West 5.8 mph 9 mph 85% 0.00 in 230 W/m2
08:24 54.7 °F 50 °F 30.19 in West 4.8 mph 9 mph 84% 0.00 in 244 W/m2
08:29 54.8 °F 50.1 °F 30.19 in West 5.6 mph 8 mph 84% 0.00 in 243 W/m2
08:34 55 °F 50.1 °F 30.19 in West 6 mph 11 mph 83.3% 0.00 in 250 W/m2
08:39 55 °F 50 °F 30.19 in WSW 3.2 mph 9 mph 83% 0.00 in 255 W/m2
08:44 55.1 °F 49.7 °F 30.19 in WSW 5.2 mph 10 mph 82% 0.00 in 239 W/m2
08:49 55.2 °F 49.8 °F 30.19 in West 4.9 mph 8 mph 82% 0.00 in 334 W/m2
08:54 55.7 °F 50 °F 30.19 in SW 6.2 mph 10 mph 81.2% 0.00 in 308 W/m2
08:59 55.8 °F 49.8 °F 30.19 in WSW 6.6 mph 13 mph 80.6% 0.00 in 292 W/m2
09:04 55.6 °F 49.5 °F 30.20 in WSW 7.4 mph 13 mph 80% 0.00 in 278 W/m2
09:09 55.7 °F 49.6 °F 30.20 in WSW 9.5 mph 13 mph 80% 0.00 in 297 W/m2
09:14 55.8 °F 49.3 °F 30.20 in West 5.5 mph 11 mph 79% 0.00 in 288 W/m2
09:19 55.8 °F 49.3 °F 30.20 in WSW 7.6 mph 13 mph 79% 0.00 in 287 W/m2
09:24 55.8 °F 49.4 °F 30.21 in WSW 7.6 mph 14 mph 79% 0.00 in 283 W/m2
09:29 55.9 °F 49.5 °F 30.21 in WSW 6.2 mph 13 mph 79% 0.00 in 510 W/m2
09:34 56.1 °F 49.7 °F 30.21 in West 7.2 mph 14 mph 79% 0.00 in 541 W/m2
09:39 56.3 °F 49.8 °F 30.21 in West 6.7 mph 14 mph 79% 0.00 in 475 W/m2
09:44 56.5 °F 50 °F 30.21 in WSW 2.8 mph 9 mph 79% 0.00 in 476 W/m2
09:49 56.7 °F 49.8 °F 30.20 in SW 4.4 mph 9 mph 78.2% 0.00 in 413 W/m2
09:54 56.7 °F 49.8 °F 30.20 in WSW 6.5 mph 14 mph 78% 0.00 in 527 W/m2
09:59 56.7 °F 49.5 °F 30.20 in WSW 5.8 mph 14 mph 77% 0.00 in 596 W/m2
10:04 56.8 °F 49.5 °F 30.20 in SSW 6.3 mph 13 mph 76.8% 0.00 in 696 W/m2
10:09 56.8 °F 49.6 °F 30.20 in West 5.4 mph 11 mph 77% 0.00 in 387 W/m2
10:14 56.9 °F 49.2 °F 30.20 in WSW 8 mph 14 mph 75.6% 0.00 in 387 W/m2
10:19 56.9 °F 49.1 °F 30.20 in West 6.4 mph 14 mph 75.4% 0.00 in 425 W/m2
10:24 57 °F 49.3 °F 30.21 in WNW 4.8 mph 10 mph 75.4% 0.00 in 443 W/m2
10:29 57.6 °F 50 °F 30.20 in WSW 3.2 mph 9 mph 76% 0.00 in 717 W/m2
10:34 58.5 °F 50.5 °F 30.20 in West 5.4 mph 11 mph 75% 0.00 in 548 W/m2
10:39 57.8 °F 49.5 °F 30.21 in West 7.5 mph 14 mph 73.8% 0.00 in 378 W/m2
10:44 57.4 °F 49.1 °F 30.21 in WSW 7.6 mph 14 mph 74% 0.00 in 341 W/m2
10:49 57.3 °F 49.1 °F 30.21 in West 5.4 mph 11 mph 74.2% 0.00 in 313 W/m2
10:54 57.4 °F 49.3 °F 30.20 in West 6.4 mph 11 mph 74.6% 0.00 in 244 W/m2
10:59 57.2 °F 49.3 °F 30.20 in WSW 4.1 mph 11 mph 75% 0.00 in 279 W/m2
11:04 57.4 °F 49.5 °F 30.20 in West 5.4 mph 9 mph 75% 0.00 in 404 W/m2
11:09 57.4 °F 49.4 °F 30.20 in West 5.1 mph 12 mph 74.8% 0.00 in 408 W/m2
11:14 57.4 °F 49.5 °F 30.20 in West 4.5 mph 11 mph 75% 0.00 in 369 W/m2
11:19 57.7 °F 49.8 °F 30.20 in West 4.7 mph 10 mph 75% 0.00 in 369 W/m2
11:24 57.6 °F 49.3 °F 30.20 in West 3.8 mph 9 mph 74% 0.00 in 408 W/m2
11:29 57.7 °F 49.5 °F 30.20 in West 4.4 mph 9 mph 74.2% 0.00 in 526 W/m2
11:34 58.4 °F 50 °F 30.20 in West 5 mph 9 mph 73.8% 0.00 in 800 W/m2
11:39 58.5 °F 49.5 °F 30.20 in West 4.9 mph 11 mph 72% 0.00 in 482 W/m2
11:44 58.7 °F 49.5 °F 30.20 in West 6.6 mph 12 mph 71.2% 0.00 in 954 W/m2
11:49 58.6 °F 49.4 °F 30.20 in West 6.5 mph 10 mph 71.3% 0.00 in 865 W/m2
11:54 59 °F 49.7 °F 30.20 in SW 6.8 mph 11 mph 71.2% 0.00 in 962 W/m2
11:59 59.5 °F 49.6 °F 30.20 in SW 8.6 mph 13 mph 69.8% 0.00 in 1035 W/m2
12:04 59.7 °F 49.9 °F 30.19 in SW 5.4 mph 10 mph 69.8% 0.00 in 1035 W/m2
12:09 59.9 °F 49.2 °F 30.19 in West 4.7 mph 14 mph 67.8% 0.00 in 986 W/m2
12:14 60.2 °F 49.2 °F 30.19 in WSW 6.2 mph 13 mph 67% 0.00 in 1081 W/m2
12:19 60.7 °F 49.6 °F 30.19 in WSW 4.2 mph 11 mph 66.6% 0.00 in 1081 W/m2
12:24 61 °F 49.6 °F 30.19 in West 6 mph 10 mph 66.2% 0.00 in 1007 W/m2
12:29 60.8 °F 49.6 °F 30.19 in West 7.3 mph 12 mph 66.5% 0.00 in 694 W/m2
12:34 60.6 °F 49.1 °F 30.19 in WSW 5.8 mph 11 mph 65.6% 0.00 in 997 W/m2
12:39 61.1 °F 48.9 °F 30.18 in WSW 7.5 mph 13 mph 64.2% 0.00 in 1041 W/m2
12:44 61.5 °F 49.7 °F 30.18 in WSW 6.6 mph 11 mph 65.4% 0.00 in 976 W/m2
12:49 61.4 °F 49.2 °F 30.18 in West 5.3 mph 12 mph 64.2% 0.00 in 960 W/m2
12:54 61.8 °F 49.5 °F 30.18 in West 6.6 mph 12 mph 64.2% 0.00 in 1021 W/m2
12:59 62.4 °F 49.6 °F 30.18 in West 2.8 mph 10 mph 62.8% 0.00 in 1062 W/m2
13:04 62.4 °F 49.2 °F 30.18 in West 6.4 mph 10 mph 62% 0.00 in 297 W/m2
13:09 61.5 °F 48.9 °F 30.18 in West 5.8 mph 11 mph 63.2% 0.00 in 1055 W/m2
13:14 61.6 °F 48.6 °F 30.18 in WNW 5 mph 11 mph 62.4% 0.00 in 1055 W/m2
13:19 62.6 °F 48.8 °F 30.18 in West 5.4 mph 11 mph 60.6% 0.00 in 960 W/m2
13:24 62.5 °F 48.3 °F 30.18 in West 6.5 mph 12 mph 59.8% 0.00 in 1071 W/m2
13:29 62.5 °F 48.5 °F 30.18 in West 6.8 mph 13 mph 60.2% 0.00 in 1048 W/m2
13:34 62.7 °F 48.1 °F 30.18 in West 7.1 mph 13 mph 59% 0.00 in 1027 W/m2
13:38 62.9 °F 48.1 °F 30.17 in WSW 6 mph 10 mph 58.5% 0.00 in 926 W/m2
13:44 62.2 °F 47.9 °F 30.18 in WNW 5.6 mph 13 mph 59.6% 0.00 in 345 W/m2
13:49 62.5 °F 48.7 °F 30.17 in West 5.4 mph 12 mph 60.6% 0.00 in 1081 W/m2
13:54 62.4 °F 48.6 °F 30.17 in West 8.2 mph 17 mph 60.6% 0.00 in 427 W/m2
13:59 62.1 °F 48.6 °F 30.18 in West 5.8 mph 12 mph 61.4% 0.00 in 360 W/m2
14:04 62.7 °F 48.6 °F 30.17 in NW 6.4 mph 11 mph 60% 0.00 in 1009 W/m2
14:09 63.6 °F 49.6 °F 30.17 in West 7.2 mph 14 mph 60.4% 0.00 in 995 W/m2
14:14 63.5 °F 49.4 °F 30.17 in WNW 6.8 mph 14 mph 60% 0.00 in 1018 W/m2
14:19 63.1 °F 49.1 °F 30.17 in NW 6.1 mph 11 mph 60% 0.00 in 1013 W/m2
14:24 63.7 °F 48.9 °F 30.17 in West 6 mph 13 mph 58.6% 0.00 in 1020 W/m2
14:29 64.3 °F 49.2 °F 30.17 in WSW 6 mph 11 mph 58% 0.00 in 1020 W/m2
14:34 64.4 °F 48.9 °F 30.17 in West 7.4 mph 16 mph 57.2% 0.00 in 888 W/m2
14:39 63.9 °F 49.1 °F 30.17 in WNW 4.5 mph 16 mph 58.6% 0.00 in 900 W/m2
14:44 64 °F 49 °F 30.17 in West 8.5 mph 14 mph 58.3% 0.00 in 867 W/m2
14:49 63.4 °F 48.6 °F 30.17 in WNW 9.6 mph 14 mph 58.4% 0.00 in 891 W/m2
14:54 63.2 °F 48.2 °F 30.17 in West 7.6 mph 13 mph 58.2% 0.00 in 867 W/m2
14:59 64 °F 48.2 °F 30.17 in WSW 7.8 mph 15 mph 56.4% 0.00 in 675 W/m2
15:04 63.7 °F 47.8 °F 30.17 in West 8.2 mph 19 mph 56.2% 0.00 in 896 W/m2
15:09 63.8 °F 49 °F 30.17 in West 5 mph 19 mph 58.6% 0.00 in 884 W/m2
15:14 64.7 °F 49.5 °F 30.17 in WSW 5.3 mph 13 mph 57.8% 0.00 in 856 W/m2
15:19 64.1 °F 48.4 °F 30.16 in West 5 mph 14 mph 56.6% 0.00 in 664 W/m2
15:24 64.2 °F 48.7 °F 30.16 in WSW 8.4 mph 16 mph 57% 0.00 in 976 W/m2
15:29 64.2 °F 48.8 °F 30.16 in WSW 8.4 mph 13 mph 57% 0.00 in 805 W/m2
15:34 64.2 °F 48.9 °F 30.16 in West 7.4 mph 15 mph 57.4% 0.00 in 814 W/m2
15:39 64.1 °F 49 °F 30.16 in WNW 7 mph 13 mph 57.8% 0.00 in 861 W/m2
15:44 64.6 °F 49.3 °F 30.16 in West 4.8 mph 12 mph 57.6% 0.00 in 863 W/m2
15:49 64.7 °F 49.1 °F 30.16 in West 9.2 mph 15 mph 57% 0.00 in 810 W/m2
15:54 64.1 °F 49.1 °F 30.16 in WSW 7.3 mph 15 mph 58.2% 0.00 in 758 W/m2
15:59 64.5 °F 49.6 °F 30.16 in WSW 5.4 mph 13 mph 58.4% 0.00 in 737 W/m2
16:04 64.7 °F 49.7 °F 30.16 in West 6.3 mph 15 mph 58.4% 0.00 in 710 W/m2
16:09 64.3 °F 49.7 °F 30.16 in West 5.5 mph 10 mph 59% 0.00 in 663 W/m2
16:14 64.8 °F 50.2 °F 30.15 in WNW 9.2 mph 14 mph 59% 0.00 in 635 W/m2
16:19 64.6 °F 50.3 °F 30.15 in WNW 6.5 mph 15 mph 60% 0.00 in 677 W/m2
16:24 64.2 °F 50.4 °F 30.15 in WNW 7.7 mph 12 mph 60.8% 0.00 in 668 W/m2
16:29 64.1 °F 50.4 °F 30.15 in WNW 8.4 mph 13 mph 60.8% 0.00 in 638 W/m2
16:34 64 °F 50.5 °F 30.15 in West 8 mph 13 mph 61.6% 0.00 in 545 W/m2
16:39 64 °F 50.6 °F 30.15 in WNW 6 mph 13 mph 61.8% 0.00 in 650 W/m2
16:44 63.9 °F 50.5 °F 30.15 in West 7.3 mph 12 mph 62% 0.00 in 548 W/m2
16:49 64 °F 51.1 °F 30.15 in WNW 8.6 mph 13 mph 62.8% 0.00 in 596 W/m2
16:54 63.8 °F 51 °F 30.15 in WNW 5.3 mph 13 mph 63% 0.00 in 615 W/m2
16:59 64 °F 51.1 °F 30.15 in West 8.4 mph 14 mph 62.6% 0.00 in 635 W/m2
17:04 64 °F 51.1 °F 30.15 in WSW 7 mph 12 mph 62.6% 0.00 in 552 W/m2
17:09 63.9 °F 51.1 °F 30.15 in West 4.5 mph 12 mph 62.8% 0.00 in 610 W/m2
17:14 64.3 °F 51.3 °F 30.14 in West 7.2 mph 13 mph 62.6% 0.00 in 510 W/m2
17:19 64.5 °F 51.6 °F 30.14 in West 5.8 mph 8 mph 63% 0.00 in 366 W/m2
17:24 64.2 °F 51.4 °F 30.14 in NW 4.8 mph 9 mph 63% 0.00 in 355 W/m2
17:29 64 °F 51.3 °F 30.14 in WNW 6.1 mph 9 mph 63% 0.00 in 380 W/m2
17:34 63.8 °F 51.2 °F 30.14 in West 4.6 mph 9 mph 63.6% 0.00 in 278 W/m2
17:39 63.6 °F 51.2 °F 30.14 in West 4.5 mph 9 mph 64% 0.00 in 418 W/m2
17:44 63.7 °F 51.3 °F 30.14 in West 3.6 mph 9 mph 64% 0.00 in 490 W/m2
17:49 64 °F 51.5 °F 30.13 in West 6.2 mph 10 mph 63.8% 0.00 in 510 W/m2
17:54 64 °F 51.2 °F 30.13 in West 3.2 mph 10 mph 62.8% 0.00 in 459 W/m2
17:59 64.1 °F 51.4 °F 30.13 in WNW 4.2 mph 10 mph 63.2% 0.00 in 483 W/m2
18:04 64.4 °F 51.6 °F 30.13 in WNW 7.1 mph 11 mph 63.2% 0.00 in 438 W/m2
18:09 64.2 °F 51.3 °F 30.13 in WNW 5.8 mph 9 mph 62.8% 0.00 in 367 W/m2
18:14 63.8 °F 51.2 °F 30.13 in WNW 6.8 mph 10 mph 63.4% 0.00 in 381 W/m2
18:19 64 °F 51.3 °F 30.12 in West 5 mph 9 mph 63.5% 0.00 in 329 W/m2
18:24 63.8 °F 51 °F 30.12 in West 7.1 mph 12 mph 63% 0.00 in 336 W/m2
18:29 63.3 °F 50.8 °F 30.12 in West 4.7 mph 9 mph 63.8% 0.00 in 206 W/m2
18:34 63 °F 50.6 °F 30.12 in West 5.2 mph 10 mph 64% 0.00 in 264 W/m2
18:39 63.1 °F 50.9 °F 30.12 in West 4.9 mph 9 mph 64.4% 0.00 in 411 W/m2
18:43 63.5 °F 51.1 °F 30.12 in West 4.7 mph 9 mph 64% 0.00 in 367 W/m2
18:49 63.6 °F 51.2 °F 30.12 in WNW 4.4 mph 8 mph 64% 0.00 in 392 W/m2
18:54 63.9 °F 51.3 °F 30.12 in West 5.6 mph 9 mph 63.6% 0.00 in 357 W/m2
18:59 63.9 °F 51.3 °F 30.12 in West 4.5 mph 8 mph 63.6% 0.00 in 250 W/m2
19:04 63.7 °F 51.3 °F 30.12 in West 5.2 mph 9 mph 64% 0.00 in 250 W/m2
19:09 63.6 °F 51.2 °F 30.12 in West 4.8 mph 10 mph 64% 0.00 in 257 W/m2
19:14 63.7 °F 51.3 °F 30.12 in West 4.4 mph 8 mph 64% 0.00 in 246 W/m2
19:19 63.8 °F 51.3 °F 30.12 in West 4.5 mph 7 mph 64% 0.00 in 225 W/m2
19:24 63.9 °F 51.4 °F 30.12 in West 4.5 mph 8 mph 64% 0.00 in 200 W/m2
19:29 63.9 °F 51.3 °F 30.12 in West 4.3 mph 6 mph 63.4% 0.00 in 181 W/m2
19:34 63.4 °F 51 °F 30.12 in West 5.9 mph 8 mph 64% 0.00 in 162 W/m2
19:39 63.1 °F 50.6 °F 30.12 in West 5.3 mph 8 mph 64% 0.00 in 144 W/m2
19:44 63 °F 51 °F 30.12 in West 3.3 mph 6 mph 64.8% 0.00 in 128 W/m2
19:49 62.8 °F 50.9 °F 30.12 in West 4.2 mph 7 mph 65% 0.00 in 113 W/m2
19:54 62.7 °F 50.8 °F 30.12 in West 2.9 mph 7 mph 65% 0.00 in 100 W/m2
19:59 62.6 °F 50.7 °F 30.12 in West 4 mph 8 mph 65% 0.00 in 86 W/m2
20:03 62.2 °F 50.4 °F 30.12 in West 2.5 mph 8 mph 65% 0.00 in 65 W/m2
20:09 62 °F 50.2 °F 30.11 in West 3.5 mph 6 mph 65.4% 0.00 in 51 W/m2
20:14 61.7 °F 50.2 °F 30.12 in West 3.2 mph 5 mph 66% 0.00 in 63 W/m2
20:19 61.6 °F 50.1 °F 30.11 in West 3.2 mph 6 mph 66% 0.00 in 54 W/m2
20:24 61.5 °F 50 °F 30.11 in West 2.2 mph 5 mph 66% 0.00 in 35 W/m2
20:29 61.3 °F 50.2 °F 30.12 in West 3.3 mph 5 mph 66.8% 0.00 in 33 W/m2
20:34 61 °F 50.1 °F 30.12 in West 3.3 mph 7 mph 67.2% 0.00 in 28 W/m2
20:39 60.5 °F 49.9 °F 30.12 in West 3.4 mph 7 mph 68% 0.00 in 21 W/m2
20:44 60.4 °F 50.1 °F 30.12 in West 2.4 mph 6 mph 68.8% 0.00 in 14 W/m2
20:48 60.3 °F 50.1 °F 30.12 in West 2.7 mph 5 mph 69% 0.00 in 11 W/m2
20:54 60.1 °F 49.8 °F 30.12 in West 2.5 mph 6 mph 68.8% 0.00 in 7 W/m2
20:58 60.1 °F 49.8 °F 30.12 in West 1.7 mph 4 mph 69% 0.00 in 5 W/m2
21:04 59.8 °F 49.6 °F 30.12 in West 3.3 mph 5 mph 69% 0.00 in 0 W/m2
21:09 59.6 °F 49.8 °F 30.12 in West 1.8 mph 5 mph 69.8% 0.00 in 0 W/m2
21:14 59.5 °F 49.8 °F 30.11 in West 0.9 mph 3 mph 70% 0.00 in 0 W/m2
21:19 59.5 °F 50 °F 30.11 in West 0.4 mph 2 mph 70.6% 0.00 in 0 W/m2
21:24 59.5 °F 49.8 °F 30.12 in West 1.3 mph 4 mph 70.2% 0.00 in 0 W/m2
21:29 59.3 °F 49.8 °F 30.12 in West 1.6 mph 4 mph 70.8% 0.00 in 0 W/m2
21:34 58.9 °F 49.8 °F 30.12 in West 0.5 mph 2 mph 71.6% 0.00 in 0 W/m2
21:39 58.6 °F 49.6 °F 30.13 in West 2 mph 3 mph 72% 0.00 in 0 W/m2
21:44 58.5 °F 49.7 °F 30.13 in West 1.3 mph 3 mph 72.8% 0.00 in 0 W/m2
21:49 58.2 °F 49.6 °F 30.13 in West 2.2 mph 4 mph 73% 0.00 in 0 W/m2
21:54 57.9 °F 49.6 °F 30.13 in West 0.2 mph 3 mph 74% 0.00 in 0 W/m2
21:59 57.7 °F 49.6 °F 30.13 in West 0.8 mph 3 mph 74.4% 0.00 in 0 W/m2
22:04 57.5 °F 49.6 °F 30.13 in West 0.9 mph 2 mph 75% 0.00 in 0 W/m2
22:09 57.2 °F 49.5 °F 30.13 in West 2 mph 3 mph 75.8% 0.00 in 0 W/m2
22:13 56.9 °F 49.4 °F 30.13 in West 2.2 mph 3 mph 76% 0.00 in 0 W/m2
22:19 56.8 °F 49.3 °F 30.13 in West 0.9 mph 3 mph 76% 0.00 in 0 W/m2
22:24 56.7 °F 49.1 °F 30.13 in West 1.3 mph 3 mph 76% 0.00 in 0 W/m2
22:29 56.8 °F 49.3 °F 30.13 in West 1.4 mph 4 mph 76% 0.00 in 0 W/m2
22:34 56.7 °F 49.2 °F 30.12 in West 1.2 mph 2 mph 76.2% 0.00 in 0 W/m2
22:39 56.7 °F 49.5 °F 30.12 in West 0.9 mph 2 mph 77% 0.00 in 0 W/m2
22:44 56.5 °F 49.3 °F 30.12 in West 1.6 mph 2 mph 77% 0.00 in 0 W/m2
22:48 56.4 °F 49.2 °F 30.13 in West 0.9 mph 2 mph 77% 0.00 in 0 W/m2
22:54 56.1 °F 48.9 °F 30.13 in West 0.7 mph 2 mph 77% 0.00 in 0 W/m2
22:59 55.9 °F 49 °F 30.12 in West 1.4 mph 2 mph 77.8% 0.00 in 0 W/m2
23:04 55.6 °F 48.9 °F 30.12 in West 0.4 mph 1 mph 78% 0.00 in 0 W/m2
23:09 55.1 °F 48.5 °F 30.12 in Calm   1 mph 78% 0.00 in 0 W/m2
23:14 54.8 °F 48.1 °F 30.12 in West 0.9 mph 2 mph 78% 0.00 in 0 W/m2
23:19 54.3 °F 48 °F 30.12 in West 1.3 mph 2 mph 79% 0.00 in 0 W/m2
23:24 54.1 °F 47.8 °F 30.12 in West 1 mph 2 mph 79% 0.00 in 0 W/m2
23:29 54 °F 47.7 °F 30.12 in West 0.4 mph 2 mph 79% 0.00 in 0 W/m2
23:34 53.6 °F 47.3 °F 30.12 in West 0.9 mph 2 mph 79% 0.00 in 0 W/m2
23:38 53.4 °F 47.1 °F 30.12 in West 0.6 mph 1 mph 79% 0.00 in 0 W/m2
23:44 53.4 °F 47.1 °F 30.12 in Calm     79% 0.00 in 0 W/m2
23:49 53.2 °F 46.9 °F 30.12 in Calm     79% 0.00 in 0 W/m2
23:54 53.1 °F 46.9 °F 30.12 in Calm   1 mph 79.4% 0.00 in 0 W/m2
23:59 53.1 °F 47.1 °F 30.11 in West 1.6 mph 2 mph 80% 0.00 in 0 W/m2
Bath Spa Weather
Compliments of Weather Underground - 2 mb